Time;durP1;ratioP1;P1;durP2;ratioP2;P2;SDS_P1;SDS_P2;PMS_P1;PMS_P2;Temp;Humidity;BMP_temperature;BMP_pressure;BME280_temperature;BME280_humidity;BME280_pressure;Samples;Min_cycle;Max_cycle;Signal;HPM_P1;HPM_P2
2022/05/25 00:00:57;;;;;;;3.92;2.13;;;;;;;;;;4987525;28;20070;-78
2022/05/25 00:03:23;;;;;;;3.33;2.10;;;;;;;;;;4994872;28;20056;-78
2022/05/25 00:05:50;;;;;;;5.25;2.47;;;;;;;;;;5002964;28;20042;-78
2022/05/25 00:08:16;;;;;;;6.85;2.40;;;;;;;;;;4984369;28;20453;-78
2022/05/25 00:10:42;;;;;;;2.78;2.22;;;;;;;;;;4980013;28;20053;-78
2022/05/25 00:13:08;;;;;;;6.18;2.10;;;;;;;;;;4976303;28;20225;-78
2022/05/25 00:15:35;;;;;;;4.72;2.25;;;;;;;;;;5007346;28;22151;-78
2022/05/25 00:18:01;;;;;;;4.00;2.35;;;;;;;;;;4976302;28;20158;-79
2022/05/25 00:20:27;;;;;;;5.97;2.80;;;;;;;;;;4990972;28;20038;-78
2022/05/25 00:22:54;;;;;;;3.35;2.33;;;;;;;;;;5000850;28;20122;-79
2022/05/25 00:25:22;;;;;;;4.60;2.60;;;;;;;;;;5000164;28;20049;-78
2022/05/25 00:27:48;;;;;;;4.35;2.47;;;;;;;;;;4996666;28;20058;-78
2022/05/25 00:30:15;;;;;;;6.28;3.00;;;;;;;;;;4999936;28;20647;-78
2022/05/25 00:32:42;;;;;;;5.82;2.63;;;;;;;;;;4993975;28;20104;-78
2022/05/25 00:35:09;;;;;;;4.72;2.30;;;;;;;;;;4994781;28;20056;-78
2022/05/25 00:37:35;;;;;;;5.70;2.42;;;;;;;;;;4991358;28;20050;-78
2022/05/25 00:40:02;;;;;;;7.82;2.55;;;;;;;;;;4996021;28;20593;-78
2022/05/25 00:42:28;;;;;;;5.65;2.20;;;;;;;;;;4990474;28;20729;-78
2022/05/25 00:44:57;;;;;;;5.72;2.13;;;;;;;;;;4999804;28;20061;-78
2022/05/25 00:47:26;;;;;;;4.10;2.10;;;;;;;;;;4993153;28;20049;-79
2022/05/25 00:49:52;;;;;;;7.13;2.38;;;;;;;;;;4988790;28;20490;-79
2022/05/25 00:52:19;;;;;;;4.20;2.28;;;;;;;;;;4987738;28;20491;-78
2022/05/25 00:54:55;;;;;;;4.85;2.42;;;;;;;;;;4989475;28;20070;-77
2022/05/25 00:57:26;;;;;;;4.13;2.40;;;;;;;;;;4985354;28;20042;-79
2022/05/25 01:00:15;;;;;;;6.22;2.42;;;;;;;;;;4987067;28;20446;-78
2022/05/25 01:02:46;;;;;;;5.35;2.17;;;;;;;;;;4981265;28;20116;-79
2022/05/25 01:05:13;;;;;;;4.78;2.40;;;;;;;;;;4999880;28;20057;-78
2022/05/25 01:07:49;;;;;;;6.40;2.50;;;;;;;;;;4991186;28;20045;-78
2022/05/25 01:10:38;;;;;;;5.93;2.00;;;;;;;;;;4995900;28;20050;-78
2022/05/25 01:13:10;;;;;;;9.30;2.58;;;;;;;;;;4991185;28;20046;-78
2022/05/25 01:15:48;;;;;;;4.57;2.17;;;;;;;;;;4987095;28;20486;-78
2022/05/25 01:18:20;;;;;;;4.85;2.10;;;;;;;;;;5001867;28;20494;-78
2022/05/25 01:20:54;;;;;;;7.00;2.22;;;;;;;;;;4988158;28;20157;-78
2022/05/25 01:23:39;;;;;;;5.03;2.15;;;;;;;;;;4992211;28;20828;-78
2022/05/25 01:26:11;;;;;;;5.60;2.17;;;;;;;;;;4983752;28;20054;-78
2022/05/25 01:28:37;;;;;;;8.13;2.55;;;;;;;;;;4996715;28;20053;-78
2022/05/25 01:31:07;;;;;;;4.47;2.05;;;;;;;;;;4992083;28;20462;-78
2022/05/25 01:33:36;;;;;;;4.38;1.98;;;;;;;;;;4997170;28;20050;-78
2022/05/25 01:36:08;;;;;;;8.23;2.50;;;;;;;;;;4988277;28;20054;-78
2022/05/25 01:38:41;;;;;;;6.38;2.60;;;;;;;;;;4997028;28;20125;-78
2022/05/25 01:41:13;;;;;;;6.00;2.85;;;;;;;;;;4993035;28;20064;-78
2022/05/25 01:43:45;;;;;;;7.05;2.75;;;;;;;;;;5001463;28;20101;-78
2022/05/25 01:46:17;;;;;;;3.63;2.50;;;;;;;;;;4996759;28;20065;-78
2022/05/25 01:48:45;;;;;;;5.47;2.50;;;;;;;;;;4999142;28;20056;-79
2022/05/25 01:51:13;;;;;;;7.93;2.40;;;;;;;;;;4993944;28;20317;-79
2022/05/25 01:53:42;;;;;;;4.85;2.53;;;;;;;;;;4998740;28;20042;-79
2022/05/25 01:56:10;;;;;;;9.43;2.55;;;;;;;;;;4990814;28;20057;-78
2022/05/25 01:58:44;;;;;;;4.40;1.98;;;;;;;;;;4996511;28;20042;-79
2022/05/25 02:01:11;;;;;;;5.43;2.08;;;;;;;;;;4997187;28;20077;-78
2022/05/25 02:06:25;;;;;;;6.70;2.78;;;;;;;;;;5003170;28;20069;-79
2022/05/25 02:08:54;;;;;;;4.90;2.60;;;;;;;;;;4986178;28;20401;-78
2022/05/25 02:11:20;;;;;;;5.32;2.40;;;;;;;;;;4996967;28;20097;-79
2022/05/25 02:13:54;;;;;;;5.32;2.30;;;;;;;;;;5000458;28;20065;-78
2022/05/25 02:16:23;;;;;;;7.32;2.72;;;;;;;;;;5001143;28;20073;-79
2022/05/25 02:19:09;;;;;;;7.22;2.90;;;;;;;;;;4994862;28;20081;-78
2022/05/25 02:21:46;;;;;;;4.88;2.58;;;;;;;;;;4997170;28;20038;-78
2022/05/25 02:24:24;;;;;;;5.03;2.60;;;;;;;;;;5006370;28;20124;-78
2022/05/25 02:26:53;;;;;;;5.82;2.33;;;;;;;;;;4987574;28;20059;-78
2022/05/25 02:29:25;;;;;;;6.82;2.97;;;;;;;;;;4997161;28;20146;-79
2022/05/25 02:31:56;;;;;;;5.43;2.30;;;;;;;;;;5002947;28;20375;-78
2022/05/25 02:34:24;;;;;;;4.72;2.22;;;;;;;;;;5004438;28;20072;-78
2022/05/25 02:36:50;;;;;;;5.05;2.15;;;;;;;;;;5000525;28;20042;-78
2022/05/25 02:39:16;;;;;;;6.28;2.40;;;;;;;;;;4990068;28;20181;-78
2022/05/25 02:41:47;;;;;;;6.35;2.17;;;;;;;;;;4993481;28;20054;-78
2022/05/25 02:44:13;;;;;;;7.32;2.50;;;;;;;;;;4991832;28;20508;-77
2022/05/25 02:46:40;;;;;;;5.13;2.20;;;;;;;;;;5004259;28;20096;-79
2022/05/25 02:49:06;;;;;;;6.50;2.25;;;;;;;;;;4994509;28;20049;-78
2022/05/25 02:51:32;;;;;;;5.05;2.17;;;;;;;;;;4996176;28;20062;-78
2022/05/25 02:53:58;;;;;;;5.28;2.03;;;;;;;;;;4989583;28;20056;-79
2022/05/25 02:56:24;;;;;;;4.97;2.20;;;;;;;;;;4986752;28;20041;-79
2022/05/25 02:58:50;;;;;;;6.57;2.20;;;;;;;;;;4994339;28;20056;-79
2022/05/25 03:01:22;;;;;;;6.25;2.03;;;;;;;;;;4986255;28;20043;-79
2022/05/25 03:03:48;;;;;;;8.13;2.30;;;;;;;;;;4993906;28;20131;-78
2022/05/25 03:06:14;;;;;;;4.60;1.88;;;;;;;;;;4990705;28;20038;-77
2022/05/25 03:08:41;;;;;;;6.30;2.20;;;;;;;;;;5006318;28;20041;-77
2022/05/25 03:11:08;;;;;;;7.93;2.20;;;;;;;;;;4983530;28;20046;-78
2022/05/25 03:13:35;;;;;;;8.90;2.70;;;;;;;;;;4998706;28;20143;-78
2022/05/25 03:16:02;;;;;;;4.10;2.40;;;;;;;;;;5005019;28;20042;-78
2022/05/25 03:18:28;;;;;;;2.97;2.08;;;;;;;;;;5003853;28;20046;-78
2022/05/25 03:20:54;;;;;;;5.65;2.30;;;;;;;;;;4993966;28;20049;-77
2022/05/25 03:23:20;;;;;;;6.22;2.40;;;;;;;;;;5003271;28;20061;-78
2022/05/25 03:25:47;;;;;;;5.53;2.80;;;;;;;;;;4989942;28;20793;-77
2022/05/25 03:28:13;;;;;;;4.95;2.05;;;;;;;;;;4979968;28;20042;-77
2022/05/25 03:30:41;;;;;;;7.88;2.65;;;;;;;;;;4999067;28;20050;-78
2022/05/25 03:33:07;;;;;;;5.72;2.45;;;;;;;;;;4988968;28;20057;-78
2022/05/25 03:35:36;;;;;;;8.90;2.53;;;;;;;;;;5004348;28;20038;-78
2022/05/25 03:38:02;;;;;;;6.55;2.25;;;;;;;;;;5004669;28;20049;-78
2022/05/25 03:40:28;;;;;;;6.65;2.35;;;;;;;;;;4995010;28;20057;-78
2022/05/25 03:42:54;;;;;;;5.00;2.13;;;;;;;;;;4988730;28;20130;-79
2022/05/25 03:45:20;;;;;;;7.65;2.05;;;;;;;;;;4997924;28;20046;-79
2022/05/25 03:47:46;;;;;;;4.43;2.13;;;;;;;;;;5001367;28;20138;-79
2022/05/25 03:50:13;;;;;;;5.90;2.10;;;;;;;;;;5000009;28;20081;-79
2022/05/25 03:52:39;;;;;;;4.40;2.13;;;;;;;;;;4991418;28;20125;-79
2022/05/25 03:55:06;;;;;;;4.85;2.10;;;;;;;;;;4994708;28;20046;-79
2022/05/25 03:57:32;;;;;;;3.42;2.10;;;;;;;;;;4989004;28;20084;-79
2022/05/25 03:59:58;;;;;;;2.80;1.73;;;;;;;;;;4991321;28;20108;-79
2022/05/25 04:02:24;;;;;;;4.20;1.80;;;;;;;;;;4987988;28;20057;-79
2022/05/25 04:05:07;;;;;;;3.83;2.00;;;;;;;;;;4995621;28;20057;-79
2022/05/25 04:07:40;;;;;;;2.75;1.50;;;;;;;;;;4987298;28;20042;-78
2022/05/25 04:10:07;;;;;;;5.85;1.67;;;;;;;;;;5001880;28;20045;-78
2022/05/25 04:12:34;;;;;;;2.47;1.63;;;;;;;;;;5000074;28;20125;-79
2022/05/25 04:15:00;;;;;;;5.35;1.70;;;;;;;;;;4999281;28;20419;-78
2022/05/25 04:17:26;;;;;;;4.90;1.80;;;;;;;;;;4988298;28;20219;-78
2022/05/25 04:19:52;;;;;;;5.07;1.90;;;;;;;;;;5003762;28;20050;-77
2022/05/25 04:22:18;;;;;;;3.60;1.80;;;;;;;;;;4997894;28;20101;-78
2022/05/25 04:24:44;;;;;;;4.57;1.77;;;;;;;;;;4981042;28;20056;-78
2022/05/25 04:27:12;;;;;;;4.60;1.80;;;;;;;;;;4994818;28;20090;-78
2022/05/25 04:29:38;;;;;;;4.85;1.58;;;;;;;;;;4989032;28;20065;-78
2022/05/25 04:32:06;;;;;;;3.03;1.65;;;;;;;;;;5001718;28;20046;-78
2022/05/25 04:34:32;;;;;;;6.10;1.90;;;;;;;;;;4997744;28;20112;-78
2022/05/25 04:39:46;;;;;;;3.22;1.60;;;;;;;;;;5003604;28;20046;-79
2022/05/25 04:42:15;;;;;;;3.05;1.65;;;;;;;;;;4996381;28;20046;-77
2022/05/25 04:44:41;;;;;;;4.40;1.80;;;;;;;;;;4990639;28;20406;-78
2022/05/25 04:47:07;;;;;;;4.63;1.80;;;;;;;;;;4988870;28;20096;-78
2022/05/25 04:49:34;;;;;;;5.32;1.80;;;;;;;;;;4998381;28;20042;-78
2022/05/25 04:52:00;;;;;;;2.95;1.80;;;;;;;;;;4988927;28;20041;-77
2022/05/25 04:54:26;;;;;;;4.72;1.70;;;;;;;;;;4995835;28;20153;-78
2022/05/25 04:59:36;;;;;;;3.42;1.67;;;;;;;;;;4995357;28;20051;-78
2022/05/25 05:02:03;;;;;;;5.03;1.80;;;;;;;;;;4989744;28;20050;-78
2022/05/25 05:04:29;;;;;;;4.43;1.60;;;;;;;;;;4988313;28;20045;-78
2022/05/25 05:06:55;;;;;;;6.25;1.83;;;;;;;;;;4991685;28;20447;-78
2022/05/25 05:09:21;;;;;;;5.68;1.83;;;;;;;;;;4997714;28;20494;-78
2022/05/25 05:11:47;;;;;;;5.38;1.95;;;;;;;;;;4991946;28;20496;-78
2022/05/25 05:14:16;;;;;;;9.48;4.13;;;;;;;;;;4999231;28;20050;-78
2022/05/25 05:16:42;;;;;;;7.82;3.35;;;;;;;;;;5001582;28;20431;-78
2022/05/25 05:19:08;;;;;;;3.58;2.00;;;;;;;;;;4991223;28;20064;-78
2022/05/25 05:21:35;;;;;;;7.55;2.17;;;;;;;;;;4997151;28;20042;-79
2022/05/25 05:24:01;;;;;;;5.10;1.88;;;;;;;;;;5005351;28;20042;-78
2022/05/25 05:26:27;;;;;;;2.15;1.60;;;;;;;;;;5004518;28;20050;-78
2022/05/25 05:28:56;;;;;;;4.82;1.90;;;;;;;;;;4987426;28;20506;-77
2022/05/25 05:31:22;;;;;;;2.50;1.60;;;;;;;;;;4993756;28;20050;-79
2022/05/25 05:33:48;;;;;;;6.00;1.98;;;;;;;;;;5008894;28;20530;-78
2022/05/25 05:36:19;;;;;;;6.45;1.80;;;;;;;;;;5000184;28;20038;-78
2022/05/25 05:38:57;;;;;;;6.75;1.73;;;;;;;;;;5004982;28;20050;-79
2022/05/25 05:41:27;;;;;;;4.90;1.80;;;;;;;;;;4994492;28;20128;-78
2022/05/25 05:43:53;;;;;;;3.45;1.40;;;;;;;;;;4994961;28;20050;-78
2022/05/25 05:46:20;;;;;;;2.75;1.50;;;;;;;;;;4995308;28;20133;-79
2022/05/25 05:48:46;;;;;;;7.15;1.77;;;;;;;;;;4989627;28;20045;-78
2022/05/25 05:51:13;;;;;;;2.90;1.50;;;;;;;;;;5000811;28;20398;-78
2022/05/25 05:53:40;;;;;;;3.20;1.45;;;;;;;;;;4986207;28;20046;-78
2022/05/25 05:56:07;;;;;;;2.53;1.42;;;;;;;;;;4993482;28;20073;-78
2022/05/25 05:58:33;;;;;;;5.82;1.83;;;;;;;;;;4988789;28;20129;-78
2022/05/25 06:00:59;;;;;;;6.25;2.35;;;;;;;;;;4994760;28;20121;-78
2022/05/25 06:03:25;;;;;;;8.88;2.38;;;;;;;;;;4986284;28;20038;-78
2022/05/25 06:05:51;;;;;;;4.57;1.80;;;;;;;;;;4989902;28;20405;-77
2022/05/25 06:08:21;;;;;;;4.15;1.95;;;;;;;;;;4987431;28;20387;-78
2022/05/25 06:10:47;;;;;;;2.33;1.75;;;;;;;;;;5002201;28;20125;-78
2022/05/25 06:13:16;;;;;;;3.83;1.63;;;;;;;;;;4994211;28;20038;-78
2022/05/25 06:21:22;;;;;;;4.22;1.70;;;;;;;;;;4998845;28;20394;-78
2022/05/25 06:23:48;;;;;;;3.97;1.80;;;;;;;;;;4995370;28;20049;-78
2022/05/25 06:26:15;;;;;;;4.53;1.70;;;;;;;;;;5000732;28;20133;-78
2022/05/25 06:28:42;;;;;;;2.17;1.75;;;;;;;;;;4994475;28;20080;-78
2022/05/25 06:31:08;;;;;;;2.83;1.73;;;;;;;;;;4994561;28;20054;-78
2022/05/25 06:33:34;;;;;;;2.45;2.05;;;;;;;;;;4998928;28;20039;-78
2022/05/25 06:36:13;;;;;;;1.88;1.77;;;;;;;;;;4989070;28;20053;-78
2022/05/25 06:38:39;;;;;;;3.28;1.95;;;;;;;;;;4993855;28;20901;-78
2022/05/25 06:41:05;;;;;;;5.65;2.33;;;;;;;;;;5006355;28;20138;-78
2022/05/25 06:43:34;;;;;;;3.78;1.95;;;;;;;;;;4992646;28;20129;-78
2022/05/25 06:46:00;;;;;;;4.55;2.00;;;;;;;;;;4993217;28;20058;-79
2022/05/25 06:48:26;;;;;;;5.65;2.60;;;;;;;;;;4987801;28;20108;-79
2022/05/25 06:50:52;;;;;;;4.13;2.20;;;;;;;;;;4988693;28;20076;-79
2022/05/25 06:53:18;;;;;;;3.75;2.13;;;;;;;;;;4986330;28;20034;-78
2022/05/25 06:55:47;;;;;;;4.82;2.30;;;;;;;;;;4992666;28;21016;-78
2022/05/25 06:58:13;;;;;;;3.90;2.28;;;;;;;;;;4995310;28;20438;-78
2022/05/25 07:00:42;;;;;;;4.97;2.50;;;;;;;;;;4990153;28;20599;-78
2022/05/25 07:03:08;;;;;;;4.97;2.33;;;;;;;;;;4993765;28;20549;-78
2022/05/25 07:05:34;;;;;;;5.43;2.30;;;;;;;;;;5006176;28;20050;-78
2022/05/25 07:08:00;;;;;;;4.88;2.55;;;;;;;;;;4982263;28;20047;-79
2022/05/25 07:10:26;;;;;;;6.93;2.55;;;;;;;;;;4992169;28;20787;-78
2022/05/25 07:12:52;;;;;;;4.32;2.40;;;;;;;;;;5000991;28;20119;-78
2022/05/25 07:15:18;;;;;;;3.88;2.22;;;;;;;;;;4998816;28;20510;-78
2022/05/25 07:17:47;;;;;;;3.90;2.80;;;;;;;;;;4994214;28;20474;-78
2022/05/25 07:20:13;;;;;;;4.00;2.40;;;;;;;;;;4994865;28;20497;-78
2022/05/25 07:22:40;;;;;;;5.03;2.75;;;;;;;;;;4989664;28;20129;-78
2022/05/25 07:25:06;;;;;;;4.18;2.38;;;;;;;;;;4993461;28;20426;-78
2022/05/25 07:27:32;;;;;;;2.78;2.40;;;;;;;;;;4993437;28;20483;-78
2022/05/25 07:29:58;;;;;;;4.97;2.83;;;;;;;;;;4980245;28;20065;-77
2022/05/25 07:32:25;;;;;;;3.83;2.78;;;;;;;;;;4982021;28;20117;-77
2022/05/25 07:34:57;;;;;;;5.53;2.70;;;;;;;;;;4989764;28;20108;-78
2022/05/25 07:37:24;;;;;;;3.35;2.25;;;;;;;;;;4985168;28;20077;-78
2022/05/25 07:39:53;;;;;;;4.93;2.88;;;;;;;;;;5004670;28;20048;-78
2022/05/25 07:42:19;;;;;;;4.43;3.00;;;;;;;;;;4999919;28;20042;-78
2022/05/25 07:44:49;;;;;;;4.45;3.00;;;;;;;;;;4984369;28;20046;-78
2022/05/25 07:47:15;;;;;;;5.28;2.80;;;;;;;;;;4977961;28;20070;-79
2022/05/25 07:49:41;;;;;;;4.32;2.90;;;;;;;;;;4982260;28;20066;-78
2022/05/25 07:52:07;;;;;;;3.53;2.50;;;;;;;;;;4973037;28;20043;-78
2022/05/25 07:54:34;;;;;;;3.65;2.55;;;;;;;;;;4981476;28;20055;-78
2022/05/25 07:57:00;;;;;;;5.85;2.60;;;;;;;;;;4989213;28;20054;-77
2022/05/25 07:59:26;;;;;;;3.25;2.53;;;;;;;;;;4973502;28;20051;-78
2022/05/25 08:07:26;;;;;;;4.10;2.05;;;;;;;;;;4992827;28;20049;-77
2022/05/25 08:09:54;;;;;;;7.40;2.17;;;;;;;;;;4990616;28;20041;-76
2022/05/25 08:12:21;;;;;;;2.20;1.90;;;;;;;;;;4989339;28;20038;-78
2022/05/25 08:14:47;;;;;;;4.13;2.47;;;;;;;;;;4991385;28;20050;-77
2022/05/25 08:17:13;;;;;;;4.90;2.30;;;;;;;;;;4989871;28;20137;-77
2022/05/25 08:19:39;;;;;;;3.55;2.42;;;;;;;;;;4998156;28;20530;-76
2022/05/25 08:22:07;;;;;;;2.95;2.20;;;;;;;;;;4999212;28;20129;-77
2022/05/25 08:24:33;;;;;;;5.05;2.30;;;;;;;;;;4992895;28;20046;-79
2022/05/25 08:27:00;;;;;;;3.00;2.00;;;;;;;;;;4998776;28;20129;-79
2022/05/25 08:29:26;;;;;;;3.67;2.20;;;;;;;;;;4992141;28;20046;-78
2022/05/25 08:31:55;;;;;;;3.88;2.40;;;;;;;;;;4997582;28;20073;-78
2022/05/25 08:34:22;;;;;;;3.83;2.40;;;;;;;;;;4990336;28;20046;-78
2022/05/25 08:36:48;;;;;;;3.90;2.20;;;;;;;;;;4989502;28;20053;-80
2022/05/25 08:39:14;;;;;;;4.85;2.33;;;;;;;;;;4992389;28;20050;-77
2022/05/25 08:41:41;;;;;;;5.20;2.17;;;;;;;;;;4986470;28;20038;-79
2022/05/25 08:44:10;;;;;;;3.17;2.00;;;;;;;;;;4994487;28;20053;-79
2022/05/25 08:46:37;;;;;;;3.85;2.50;;;;;;;;;;4991159;28;20403;-79
2022/05/25 08:49:05;;;;;;;5.60;2.65;;;;;;;;;;5002835;28;20422;-80
2022/05/25 08:51:32;;;;;;;4.45;2.40;;;;;;;;;;4973119;28;20145;-79
2022/05/25 08:53:59;;;;;;;5.03;2.17;;;;;;;;;;4985045;28;20109;-79
2022/05/25 08:56:40;;;;;;;4.72;2.40;;;;;;;;;;4987392;28;20109;-78
2022/05/25 08:59:06;;;;;;;5.07;2.30;;;;;;;;;;4983592;28;20486;-79
2022/05/25 09:01:51;;;;;;;4.10;2.20;;;;;;;;;;5010916;28;20054;-80
2022/05/25 09:04:26;;;;;;;6.45;2.40;;;;;;;;;;5001673;28;20042;-80
2022/05/25 09:07:18;;;;;;;4.70;2.50;;;;;;;;;;4983938;28;20502;-78
2022/05/25 09:09:45;;;;;;;4.03;2.10;;;;;;;;;;4978181;28;20641;-78
2022/05/25 09:12:15;;;;;;;3.22;2.20;;;;;;;;;;4984695;28;20559;-78
2022/05/25 09:14:49;;;;;;;4.63;2.33;;;;;;;;;;5000755;28;20051;-79
2022/05/25 09:17:23;;;;;;;4.07;2.20;;;;;;;;;;4989965;28;20360;-79
2022/05/25 09:19:50;;;;;;;2.95;2.30;;;;;;;;;;4986980;28;20101;-79
2022/05/25 09:22:21;;;;;;;5.32;2.30;;;;;;;;;;4979527;28;20042;-79
2022/05/25 09:24:48;;;;;;;6.28;2.72;;;;;;;;;;4983481;28;20049;-79
2022/05/25 09:27:16;;;;;;;5.22;2.28;;;;;;;;;;4994930;28;20162;-79
2022/05/25 09:29:44;;;;;;;4.35;2.22;;;;;;;;;;4984379;28;20084;-80
2022/05/25 09:32:29;;;;;;;6.30;2.50;;;;;;;;;;4991971;28;20047;-80
2022/05/25 09:35:04;;;;;;;4.88;2.40;;;;;;;;;;4986010;28;20405;-80
2022/05/25 09:37:39;;;;;;;5.20;2.50;;;;;;;;;;4998935;28;20631;-80
2022/05/25 09:40:10;;;;;;;4.75;2.55;;;;;;;;;;4992722;28;20113;-78
2022/05/25 09:42:37;;;;;;;8.43;2.65;;;;;;;;;;4982171;28;20047;-77
2022/05/25 09:45:09;;;;;;;5.53;2.30;;;;;;;;;;4972130;28;20046;-78
2022/05/25 09:47:44;;;;;;;3.58;2.30;;;;;;;;;;4983375;28;20391;-78
2022/05/25 09:50:29;;;;;;;2.97;2.25;;;;;;;;;;5010863;28;20451;-78
2022/05/25 09:52:55;;;;;;;5.15;2.17;;;;;;;;;;5011064;28;20119;-78
2022/05/25 09:55:29;;;;;;;3.67;2.40;;;;;;;;;;5005824;28;20042;-76
2022/05/25 09:57:59;;;;;;;4.10;2.40;;;;;;;;;;4992661;28;20128;-77
2022/05/25 10:00:43;;;;;;;4.57;2.45;;;;;;;;;;5010559;28;20574;-79
2022/05/25 10:03:10;;;;;;;;;;;;;;;;;;4988535;28;20042;-79
2022/05/25 10:05:55;;;;;;;8.05;2.50;;;;;;;;;;4971576;28;19929;-78
2022/05/25 10:08:25;;;;;;;6.10;2.83;;;;;;;;;;4999932;28;20409;-79
2022/05/25 10:10:56;;;;;;;4.00;2.20;;;;;;;;;;5014273;28;20088;-79
2022/05/25 10:13:28;;;;;;;4.03;2.33;;;;;;;;;;5008483;28;20113;-79
2022/05/25 10:15:54;;;;;;;4.50;2.30;;;;;;;;;;4994538;28;20047;-79
2022/05/25 10:18:35;;;;;;;5.95;2.25;;;;;;;;;;5002898;28;20045;-78
2022/05/25 10:21:01;;;;;;;6.63;2.60;;;;;;;;;;5007066;28;20053;-78
2022/05/25 10:23:28;;;;;;;10.68;3.08;;;;;;;;;;4984225;28;20046;-78
2022/05/25 10:26:11;;;;;;;5.15;2.38;;;;;;;;;;4974558;28;20053;-78
2022/05/25 10:28:48;;;;;;;6.32;2.70;;;;;;;;;;4995835;28;20487;-78
2022/05/25 10:36:57;;;;;;;4.10;1.95;;;;;;;;;;5002852;28;20051;-78
2022/05/25 10:39:24;;;;;;;6.15;2.00;;;;;;;;;;5003676;28;20503;-77
2022/05/25 10:42:08;;;;;;;2.25;1.95;;;;;;;;;;4973189;28;20491;-78
2022/05/25 10:44:40;;;;;;;4.40;2.38;;;;;;;;;;4984810;28;20046;-78
2022/05/25 10:47:13;;;;;;;4.28;2.28;;;;;;;;;;4978918;28;20046;-82
2022/05/25 10:49:43;;;;;;;3.40;2.20;;;;;;;;;;4999089;28;20046;-78
2022/05/25 10:52:17;;;;;;;6.80;2.25;;;;;;;;;;4988711;28;20612;-78
2022/05/25 10:54:46;;;;;;;3.63;2.40;;;;;;;;;;4990873;28;20581;-77
2022/05/25 10:57:16;;;;;;;3.95;1.95;;;;;;;;;;4987005;28;20435;-78
2022/05/25 10:59:45;;;;;;;5.38;2.22;;;;;;;;;;4979716;28;20121;-78
2022/05/25 11:02:36;;;;;;;4.15;1.77;;;;;;;;;;4991518;28;20065;-78
2022/05/25 11:05:18;;;;;;;4.65;2.05;;;;;;;;;;4973593;28;20038;-78
2022/05/25 11:07:44;;;;;;;3.88;2.08;;;;;;;;;;4976304;28;20069;-78
2022/05/25 11:10:19;;;;;;;3.35;2.10;;;;;;;;;;4982657;28;20395;-78
2022/05/25 11:13:04;;;;;;;3.97;2.10;;;;;;;;;;4997012;28;20046;-77
2022/05/25 11:15:39;;;;;;;11.27;2.78;;;;;;;;;;4992351;28;20050;-77
2022/05/25 11:18:16;;;;;;;4.72;1.75;;;;;;;;;;4988639;28;20181;-77
2022/05/25 11:20:53;;;;;;;2.00;1.77;;;;;;;;;;4978538;28;20054;-78
2022/05/25 11:23:28;;;;;;;6.35;1.98;;;;;;;;;;4974187;28;20046;-78
2022/05/25 11:26:04;;;;;;;6.15;2.10;;;;;;;;;;4981593;28;20066;-78
2022/05/25 11:28:56;;;;;;;4.07;1.88;;;;;;;;;;5002597;28;20042;-78
2022/05/25 11:31:25;;;;;;;8.73;3.00;;;;;;;;;;4986674;28;20085;-78
2022/05/25 11:34:11;;;;;;;5.53;1.77;;;;;;;;;;4989810;28;20495;-78
2022/05/25 11:36:43;;;;;;;4.15;2.10;;;;;;;;;;4991797;28;20104;-77
2022/05/25 11:39:21;;;;;;;6.85;2.03;;;;;;;;;;4987300;28;20053;-77
2022/05/25 11:42:00;;;;;;;6.22;2.10;;;;;;;;;;5008349;28;20127;-78
2022/05/25 11:44:29;;;;;;;3.50;2.10;;;;;;;;;;4982444;28;20050;-77
2022/05/25 11:47:00;;;;;;;4.57;2.13;;;;;;;;;;4990190;28;20371;-77
2022/05/25 11:49:33;;;;;;;9.20;2.40;;;;;;;;;;4993597;28;20407;-76
2022/05/25 11:52:19;;;;;;;4.60;1.92;;;;;;;;;;4972851;28;20188;-77
2022/05/25 11:55:03;;;;;;;12.38;2.85;;;;;;;;;;5005482;28;20061;-78
2022/05/25 11:57:37;;;;;;;5.38;1.80;;;;;;;;;;5010825;28;20053;-77
2022/05/25 12:00:06;;;;;;;3.67;1.90;;;;;;;;;;5002481;28;20073;-77
2022/05/25 12:02:42;;;;;;;6.38;2.13;;;;;;;;;;5000195;28;20047;-77
2022/05/25 12:05:14;;;;;;;4.00;1.98;;;;;;;;;;4982868;28;20057;-77
2022/05/25 12:08:03;;;;;;;5.22;2.00;;;;;;;;;;4990217;28;20050;-77
2022/05/25 12:10:29;;;;;;;4.88;2.00;;;;;;;;;;4995866;28;20050;-78
2022/05/25 12:12:55;;;;;;;4.57;2.00;;;;;;;;;;5011261;28;20038;-76
2022/05/25 12:15:30;;;;;;;3.88;1.40;;;;;;;;;;4989168;28;20061;-77
2022/05/25 12:18:02;;;;;;;3.28;1.60;;;;;;;;;;4991674;28;20186;-77
2022/05/25 12:20:37;;;;;;;4.65;1.80;;;;;;;;;;4987175;28;20049;-78
2022/05/25 12:23:06;;;;;;;7.40;1.50;;;;;;;;;;4970943;28;20148;-78
2022/05/25 12:25:34;;;;;;;3.05;1.60;;;;;;;;;;4995078;28;20558;-78
2022/05/25 12:28:01;;;;;;;4.63;1.80;;;;;;;;;;4989200;28;20062;-78
2022/05/25 12:30:27;;;;;;;3.72;1.40;;;;;;;;;;5011132;28;20057;-77
2022/05/25 12:32:53;;;;;;;5.70;1.50;;;;;;;;;;5006271;28;20042;-78
2022/05/25 12:35:19;;;;;;;1.73;1.40;;;;;;;;;;4996126;28;20479;-78
2022/05/25 12:37:53;;;;;;;5.80;1.83;;;;;;;;;;4971928;28;20129;-77
2022/05/25 12:40:34;;;;;;;3.20;1.83;;;;;;;;;;5009044;28;20072;-78
2022/05/25 12:43:00;;;;;;;3.90;1.67;;;;;;;;;;5002219;28;20053;-77
2022/05/25 12:48:30;;;;;;;6.28;1.77;;;;;;;;;;5007542;28;20047;-78
2022/05/25 12:51:08;;;;;;;3.85;1.50;;;;;;;;;;4971582;28;20050;-79
2022/05/25 12:53:37;;;;;;;5.70;2.00;;;;;;;;;;4987167;28;20043;-78
2022/05/25 12:56:11;;;;;;;6.68;1.75;;;;;;;;;;4998039;28;20446;-78
2022/05/25 12:58:47;;;;;;;4.43;2.10;;;;;;;;;;5008998;28;20108;-78
2022/05/25 13:01:26;;;;;;;3.67;1.60;;;;;;;;;;5003801;28;20077;-77
2022/05/25 13:03:52;;;;;;;4.30;1.80;;;;;;;;;;4997386;28;20088;-78
2022/05/25 13:06:21;;;;;;;5.50;1.60;;;;;;;;;;4998214;28;20081;-78
2022/05/25 13:08:50;;;;;;;5.43;2.15;;;;;;;;;;5007387;28;20050;-78
2022/05/25 13:11:30;;;;;;;6.38;1.90;;;;;;;;;;4991793;28;20070;-78
2022/05/25 13:13:57;;;;;;;7.57;1.90;;;;;;;;;;4997408;28;20160;-78
2022/05/25 13:16:42;;;;;;;6.70;2.25;;;;;;;;;;5007212;28;20069;-77
2022/05/25 13:19:30;;;;;;;7.70;1.90;;;;;;;;;;4994439;28;20281;-79
2022/05/25 13:22:02;;;;;;;5.60;1.77;;;;;;;;;;4977076;28;20084;-78
2022/05/25 13:24:32;;;;;;;4.90;1.73;;;;;;;;;;5007617;28;20046;-78
2022/05/25 13:27:16;;;;;;;5.53;1.70;;;;;;;;;;4995291;28;20423;-79
2022/05/25 13:30:02;;;;;;;4.13;1.85;;;;;;;;;;4985353;28;20053;-79
2022/05/25 13:32:28;;;;;;;3.22;1.60;;;;;;;;;;4984950;28;20499;-78
2022/05/25 13:34:54;;;;;;;6.63;1.95;;;;;;;;;;4993066;28;20081;-78
2022/05/25 13:37:20;;;;;;;4.07;1.60;;;;;;;;;;4990706;28;20050;-78
2022/05/25 13:39:46;;;;;;;5.63;1.92;;;;;;;;;;4976290;28;20049;-78
2022/05/25 13:42:14;;;;;;;3.92;1.90;;;;;;;;;;4975970;28;20043;-78
2022/05/25 13:44:40;;;;;;;7.00;1.98;;;;;;;;;;4983592;28;20073;-79
2022/05/25 13:47:06;;;;;;;6.90;1.77;;;;;;;;;;5010074;28;20505;-79
2022/05/25 13:49:35;;;;;;;3.97;1.85;;;;;;;;;;4982329;28;20055;-79
2022/05/25 13:52:11;;;;;;;5.82;1.75;;;;;;;;;;4975872;28;20211;-79
2022/05/25 13:54:38;;;;;;;7.05;1.98;;;;;;;;;;4981535;28;20482;-78
2022/05/25 13:57:04;;;;;;;10.23;2.33;;;;;;;;;;5007261;28;20038;-78
2022/05/25 13:59:35;;;;;;;5.72;1.98;;;;;;;;;;5008704;28;20052;-78
2022/05/25 14:02:19;;;;;;;4.30;1.92;;;;;;;;;;5001463;28;20084;-78
2022/05/25 14:04:46;;;;;;;6.35;2.05;;;;;;;;;;4994697;28;20113;-78
2022/05/25 14:07:24;;;;;;;5.38;1.98;;;;;;;;;;5009296;28;20409;-78
2022/05/25 14:12:39;;;;;;;5.43;2.03;;;;;;;;;;5010673;28;20054;-77
2022/05/25 14:15:06;;;;;;;6.07;1.98;;;;;;;;;;5003714;28;20348;-77
2022/05/25 14:17:32;;;;;;;5.32;2.00;;;;;;;;;;5007751;28;20058;-77
2022/05/25 14:19:59;;;;;;;4.53;1.90;;;;;;;;;;5013380;28;20042;-78
2022/05/25 14:22:27;;;;;;;6.55;2.10;;;;;;;;;;5003608;28;20046;-77
2022/05/25 14:24:55;;;;;;;9.65;2.38;;;;;;;;;;4993599;28;20047;-77
2022/05/25 14:27:30;;;;;;;6.53;2.00;;;;;;;;;;4995967;28;20134;-77
2022/05/25 14:29:59;;;;;;;6.47;1.88;;;;;;;;;;4999610;28;20387;-77
2022/05/25 14:32:26;;;;;;;6.28;1.98;;;;;;;;;;4993557;28;20129;-77
2022/05/25 14:34:54;;;;;;;4.97;2.30;;;;;;;;;;5007878;28;20045;-77
2022/05/25 14:37:21;;;;;;;8.50;2.30;;;;;;;;;;5007127;28;20098;-77
2022/05/25 14:39:47;;;;;;;6.43;2.10;;;;;;;;;;5012546;28;20487;-77
2022/05/25 14:42:15;;;;;;;5.75;2.00;;;;;;;;;;5012348;28;20046;-77
2022/05/25 14:44:50;;;;;;;6.15;2.05;;;;;;;;;;5004909;28;20079;-77
2022/05/25 14:47:37;;;;;;;8.35;2.03;;;;;;;;;;4999196;28;20042;-76
2022/05/25 14:50:12;;;;;;;5.93;2.00;;;;;;;;;;4972828;28;20117;-77
2022/05/25 14:52:44;;;;;;;5.60;2.42;;;;;;;;;;4990049;28;20042;-77
2022/05/25 14:55:17;;;;;;;5.75;2.50;;;;;;;;;;5009886;28;20121;-77
2022/05/25 14:57:43;;;;;;;8.63;2.50;;;;;;;;;;5009489;28;20053;-77
2022/05/25 15:00:12;;;;;;;8.23;2.28;;;;;;;;;;4980673;28;20109;-77
2022/05/25 15:02:39;;;;;;;10.55;2.40;;;;;;;;;;4998563;28;20111;-78
2022/05/25 15:05:22;;;;;;;6.13;2.50;;;;;;;;;;4995294;28;20069;-79
2022/05/25 15:07:52;;;;;;;9.60;2.47;;;;;;;;;;4993586;28;20368;-78
2022/05/25 15:10:18;;;;;;;11.35;2.58;;;;;;;;;;4999363;28;20463;-79
2022/05/25 15:12:50;;;;;;;7.28;2.42;;;;;;;;;;4985123;28;20399;-79
2022/05/25 15:18:31;;;;;;;6.13;2.45;;;;;;;;;;4990859;28;20051;-78
2022/05/25 15:21:02;;;;;;;8.05;2.70;;;;;;;;;;4991944;28;20486;-78
2022/05/25 15:23:41;;;;;;;6.55;2.58;;;;;;;;;;4991657;28;20065;-78
2022/05/25 15:26:28;;;;;;;5.63;2.38;;;;;;;;;;5005574;28;20061;-78
2022/05/25 15:29:11;;;;;;;7.65;2.55;;;;;;;;;;4990626;28;20058;-78
2022/05/25 15:31:37;;;;;;;11.75;3.42;;;;;;;;;;4996044;28;20058;-78
2022/05/25 15:34:04;;;;;;;9.27;2.50;;;;;;;;;;4989299;28;20495;-78